Time;durP1;ratioP1;P1;durP2;ratioP2;P2;SDS_P1;SDS_P2;PMS_P1;PMS_P2;Temp;Humidity;BMP_temperature;BMP_pressure;BME280_temperature;BME280_humidity;BME280_pressure;Samples;Min_cycle;Max_cycle;Signal;HPM_P1;HPM_P2
2024/01/12 00:01:44;;;;;;;57.00;29.35;;;0.70;99.90;;;;;;5129643;27;20171;-34
2024/01/12 00:04:10;;;;;;;56.00;29.67;;;0.60;99.90;;;;;;5129383;27;20113;-34
2024/01/12 00:06:36;;;;;;;49.95;27.55;;;0.60;99.90;;;;;;5107814;27;20070;-35
2024/01/12 00:09:02;;;;;;;57.50;29.13;;;0.70;99.90;;;;;;5130419;27;20089;-36
2024/01/12 00:11:27;;;;;;;51.10;28.35;;;0.60;99.90;;;;;;5127787;27;20127;-35
2024/01/12 00:13:53;;;;;;;60.17;30.92;;;0.60;99.90;;;;;;5127360;27;20546;-35
2024/01/12 00:16:22;;;;;;;51.75;27.75;;;0.60;99.90;;;;;;5128558;27;20096;-35
2024/01/12 00:18:47;;;;;;;52.95;28.98;;;0.60;99.90;;;;;;5131173;27;20044;-34
2024/01/12 00:21:14;;;;;;;57.15;29.38;;;0.60;99.90;;;;;;5123328;27;20509;-35
2024/01/12 00:23:39;;;;;;;56.88;29.88;;;0.60;99.90;;;;;;5120414;27;20070;-36
2024/01/12 00:26:05;;;;;;;57.95;30.40;;;0.70;99.90;;;;;;5123964;28;20038;-35
2024/01/12 00:28:32;;;;;;;57.53;28.38;;;0.70;99.90;;;;;;5127441;28;20039;-37
2024/01/12 00:30:57;;;;;;;60.92;29.88;;;0.70;99.90;;;;;;5090975;28;20062;-34
2024/01/12 00:33:23;;;;;;;56.50;28.58;;;0.70;99.90;;;;;;5083709;28;20040;-35
2024/01/12 00:35:49;;;;;;;49.72;26.05;;;0.70;99.90;;;;;;5088829;28;20033;-35
2024/01/12 00:38:15;;;;;;;48.83;27.17;;;0.70;99.90;;;;;;5087279;28;20036;-34
2024/01/12 00:40:41;;;;;;;54.88;28.55;;;0.70;99.90;;;;;;5080895;28;20137;-34
2024/01/12 00:43:07;;;;;;;53.95;28.02;;;0.70;99.90;;;;;;5085008;28;20075;-34
2024/01/12 00:45:33;;;;;;;54.30;28.73;;;0.70;99.90;;;;;;5080287;28;20044;-35
2024/01/12 00:48:00;;;;;;;52.53;27.20;;;0.70;99.90;;;;;;5083421;28;20048;-34
2024/01/12 00:50:25;;;;;;;53.92;28.95;;;0.70;99.90;;;;;;5087359;28;20040;-34
2024/01/12 00:52:51;;;;;;;56.42;27.67;;;0.70;99.90;;;;;;5088432;28;20048;-34
2024/01/12 00:55:17;;;;;;;53.15;26.67;;;0.70;99.90;;;;;;5080219;28;20081;-34
2024/01/12 00:57:43;;;;;;;53.95;27.00;;;0.70;99.90;;;;;;5089655;28;20033;-34
2024/01/12 01:00:09;;;;;;;51.10;26.70;;;0.70;99.90;;;;;;5082405;28;20036;-34
2024/01/12 01:02:35;;;;;;;50.85;26.80;;;0.70;99.90;;;;;;5090754;28;20094;-34
2024/01/12 01:05:01;;;;;;;62.15;28.55;;;0.70;99.90;;;;;;5084073;28;20055;-34
2024/01/12 01:07:28;;;;;;;56.13;28.05;;;0.80;99.90;;;;;;5083480;28;20119;-34
2024/01/12 01:09:54;;;;;;;52.60;28.48;;;0.80;99.90;;;;;;5085328;28;20074;-34
2024/01/12 01:12:20;;;;;;;50.10;26.05;;;0.80;99.90;;;;;;5079846;28;20032;-34
2024/01/12 01:14:46;;;;;;;45.63;25.80;;;0.70;99.90;;;;;;5074330;28;20098;-34
2024/01/12 01:17:12;;;;;;;49.55;25.98;;;0.70;99.90;;;;;;5075629;28;20044;-34
2024/01/12 01:19:38;;;;;;;47.10;24.80;;;0.70;99.90;;;;;;5087672;28;20059;-35
2024/01/12 01:22:04;;;;;;;50.33;25.35;;;0.80;99.90;;;;;;5092867;28;20036;-34
2024/01/12 01:24:30;;;;;;;44.20;23.80;;;0.80;99.90;;;;;;5092915;28;20364;-34
2024/01/12 01:26:57;;;;;;;44.85;24.58;;;0.80;99.90;;;;;;5094707;28;20105;-35
2024/01/12 01:29:22;;;;;;;44.67;21.75;;;0.80;99.90;;;;;;5090205;28;20396;-34
2024/01/12 01:31:48;;;;;;;38.75;20.20;;;0.80;99.90;;;;;;5119342;27;20047;-34
2024/01/12 01:34:16;;;;;;;38.28;19.80;;;0.90;99.90;;;;;;5135525;27;20051;-34
2024/01/12 01:36:42;;;;;;;36.83;20.40;;;0.90;99.90;;;;;;5123455;27;20040;-37
2024/01/12 01:39:08;;;;;;;41.53;19.88;;;0.90;99.90;;;;;;5133766;27;20039;-34
2024/01/12 01:41:35;;;;;;;40.95;21.00;;;0.90;99.90;;;;;;5123190;27;20048;-34
2024/01/12 01:44:01;;;;;;;38.40;20.52;;;0.90;99.90;;;;;;5134892;27;20050;-34
2024/01/12 01:46:28;;;;;;;41.60;20.70;;;0.90;99.90;;;;;;5127893;27;20044;-35
2024/01/12 01:48:54;;;;;;;36.55;20.10;;;1.00;99.90;;;;;;5123207;27;20043;-34
2024/01/12 01:51:20;;;;;;;35.00;19.85;;;1.00;99.90;;;;;;5131694;27;20394;-34
2024/01/12 01:53:46;;;;;;;36.95;19.38;;;1.10;99.90;;;;;;5117148;27;20040;-34
2024/01/12 01:56:12;;;;;;;43.67;21.02;;;1.00;99.90;;;;;;5133873;27;20043;-35
2024/01/12 01:58:39;;;;;;;35.92;19.67;;;1.00;99.90;;;;;;5108548;27;20111;-34
2024/01/12 02:01:05;;;;;;;35.15;18.80;;;1.10;99.90;;;;;;5134326;27;20043;-34
2024/01/12 02:03:31;;;;;;;34.72;17.90;;;1.00;99.90;;;;;;5126394;27;20051;-35
2024/01/12 02:05:57;;;;;;;36.22;18.17;;;1.00;99.90;;;;;;5123358;27;20058;-34
2024/01/12 02:08:25;;;;;;;28.98;16.92;;;1.10;99.90;;;;;;5132859;27;20069;-34
2024/01/12 02:10:52;;;;;;;36.10;18.33;;;1.10;99.90;;;;;;5110530;27;20035;-34
2024/01/12 02:13:19;;;;;;;31.40;18.60;;;1.10;99.90;;;;;;5129512;27;20429;-35
2024/01/12 02:15:44;;;;;;;33.75;16.77;;;1.10;99.90;;;;;;5122683;27;20032;-34
2024/01/12 02:18:10;;;;;;;32.25;15.43;;;1.20;99.90;;;;;;5134569;27;20039;-34
2024/01/12 02:20:36;;;;;;;29.02;14.52;;;1.10;99.90;;;;;;5094579;27;20123;-35
2024/01/12 02:23:02;;;;;;;32.28;15.82;;;1.20;99.90;;;;;;5122439;27;20074;-34
2024/01/12 02:25:28;;;;;;;25.85;14.27;;;1.20;99.90;;;;;;5133050;27;20035;-34
2024/01/12 02:27:54;;;;;;;28.80;14.57;;;1.30;99.90;;;;;;5127581;27;20035;-34
2024/01/12 02:30:20;;;;;;;24.90;13.65;;;1.20;99.90;;;;;;5128563;27;20174;-34
2024/01/12 02:32:45;;;;;;;21.15;12.13;;;1.20;99.90;;;;;;5128591;27;20093;-35
2024/01/12 02:35:11;;;;;;;28.80;14.02;;;1.30;99.90;;;;;;5117361;27;20502;-34
2024/01/12 02:37:37;;;;;;;30.33;13.13;;;1.30;99.90;;;;;;5125056;27;20039;-34
2024/01/12 02:40:03;;;;;;;30.05;13.05;;;1.30;99.90;;;;;;5126231;27;20039;-34
2024/01/12 02:42:29;;;;;;;22.50;12.88;;;1.30;99.90;;;;;;5132329;27;20027;-35
2024/01/12 02:44:55;;;;;;;25.42;12.68;;;1.30;99.90;;;;;;5127010;27;20122;-34
2024/01/12 02:47:20;;;;;;;22.58;13.15;;;1.30;99.90;;;;;;5122745;27;20040;-34
2024/01/12 02:49:46;;;;;;;22.00;11.98;;;1.40;99.90;;;;;;5124892;27;20484;-34
2024/01/12 02:52:12;;;;;;;24.65;11.80;;;1.40;99.90;;;;;;5124188;27;21436;-34
2024/01/12 02:54:37;;;;;;;20.65;11.57;;;1.40;99.90;;;;;;5126158;27;20044;-34
2024/01/12 02:57:03;;;;;;;22.75;11.43;;;1.40;99.90;;;;;;5129130;27;20038;-35
2024/01/12 02:59:29;;;;;;;18.77;11.27;;;1.40;99.90;;;;;;5121222;27;20063;-35
2024/01/12 03:01:55;;;;;;;20.08;11.60;;;1.40;99.90;;;;;;5131318;27;20039;-35
2024/01/12 03:04:21;;;;;;;25.40;11.43;;;1.40;99.90;;;;;;5126732;27;20042;-34
2024/01/12 03:06:46;;;;;;;23.27;11.52;;;1.40;99.90;;;;;;5127145;27;20156;-36
2024/01/12 03:09:12;;;;;;;18.25;10.63;;;1.40;99.90;;;;;;5128521;27;20035;-34
2024/01/12 03:11:38;;;;;;;21.98;10.68;;;1.50;99.90;;;;;;5122872;27;20047;-35
2024/01/12 03:14:03;;;;;;;19.92;10.52;;;1.50;99.90;;;;;;5121299;27;20027;-34
2024/01/12 03:16:29;;;;;;;16.65;10.65;;;1.50;99.90;;;;;;5129305;27;20042;-34
2024/01/12 03:18:56;;;;;;;20.45;10.32;;;1.50;99.90;;;;;;5130141;27;20398;-34
2024/01/12 03:21:21;;;;;;;20.45;9.75;;;1.50;99.90;;;;;;5130093;27;20112;-35
2024/01/12 03:23:47;;;;;;;15.77;9.07;;;1.40;99.90;;;;;;5118710;27;20398;-35
2024/01/12 03:26:14;;;;;;;18.70;9.27;;;1.50;99.90;;;;;;5109972;27;20511;-34
2024/01/12 03:28:39;;;;;;;15.57;9.05;;;1.50;99.90;;;;;;5102261;27;20040;-35
2024/01/12 03:31:06;;;;;;;20.23;9.68;;;1.50;99.90;;;;;;5123163;27;20058;-35
2024/01/12 03:33:32;;;;;;;17.00;8.85;;;1.60;99.90;;;;;;5125856;27;20555;-35
2024/01/12 03:35:58;;;;;;;12.57;9.00;;;1.60;99.90;;;;;;5124224;27;20035;-35
2024/01/12 03:38:24;;;;;;;21.63;9.63;;;1.50;99.90;;;;;;5114304;27;20047;-35
2024/01/12 03:40:50;;;;;;;19.73;9.30;;;1.60;99.90;;;;;;5125833;27;20047;-32
2024/01/12 03:43:16;;;;;;;17.13;9.90;;;1.60;99.90;;;;;;5120005;27;20043;-34
2024/01/12 03:45:41;;;;;;;21.08;10.18;;;1.70;99.90;;;;;;5128589;27;20524;-33
2024/01/12 03:48:07;;;;;;;16.73;9.82;;;1.60;99.90;;;;;;5126361;27;20035;-34
2024/01/12 03:50:33;;;;;;;15.88;8.43;;;1.70;99.90;;;;;;5112745;27;20083;-34
2024/01/12 03:52:59;;;;;;;16.35;9.57;;;1.70;99.90;;;;;;5122357;27;20035;-33
2024/01/12 03:55:25;;;;;;;17.48;10.43;;;1.70;99.90;;;;;;5132986;27;20027;-33
2024/01/12 03:57:50;;;;;;;16.67;9.30;;;1.70;99.90;;;;;;5130031;27;20577;-34
2024/01/12 04:00:16;;;;;;;17.58;9.77;;;1.70;99.90;;;;;;5124251;27;20023;-33
2024/01/12 04:02:42;;;;;;;14.43;9.02;;;1.60;99.90;;;;;;5129187;27;20076;-33
2024/01/12 04:05:09;;;;;;;22.52;10.15;;;1.60;99.90;;;;;;5127582;27;20067;-34
2024/01/12 04:07:35;;;;;;;18.88;10.98;;;1.60;99.90;;;;;;5132547;27;20378;-34
2024/01/12 04:10:01;;;;;;;16.70;9.25;;;1.60;99.90;;;;;;5127954;27;20035;-33
2024/01/12 04:12:26;;;;;;;17.05;10.13;;;1.60;99.90;;;;;;5110375;27;20023;-34
2024/01/12 04:14:52;;;;;;;36.55;19.35;;;1.60;99.90;;;;;;5124052;27;20043;-34
2024/01/12 04:17:18;;;;;;;19.48;9.50;;;1.60;99.90;;;;;;5124978;27;20059;-34
2024/01/12 04:19:43;;;;;;;19.65;9.93;;;1.60;99.90;;;;;;5129239;27;20039;-33
2024/01/12 04:22:09;;;;;;;17.52;9.75;;;1.60;99.90;;;;;;5120884;27;20179;-34
2024/01/12 04:24:35;;;;;;;20.00;10.93;;;1.60;99.90;;;;;;5126682;27;20490;-34
2024/01/12 04:27:00;;;;;;;33.85;16.90;;;1.60;99.90;;;;;;5131796;27;20046;-32
2024/01/12 04:29:26;;;;;;;32.97;17.92;;;1.60;99.90;;;;;;5120200;27;20061;-33
2024/01/12 04:31:52;;;;;;;20.80;11.27;;;1.60;99.90;;;;;;5124914;28;20143;-34
2024/01/12 04:34:18;;;;;;;32.40;17.13;;;1.60;99.90;;;;;;5124256;28;20050;-33
2024/01/12 04:36:44;;;;;;;19.65;11.52;;;1.60;99.90;;;;;;5132206;28;20035;-34
2024/01/12 04:39:09;;;;;;;24.00;12.07;;;1.60;99.90;;;;;;5124311;28;20039;-33
2024/01/12 04:41:35;;;;;;;22.13;12.80;;;1.60;99.90;;;;;;5118449;28;20111;-34
2024/01/12 04:44:01;;;;;;;17.33;9.68;;;1.60;99.90;;;;;;5108434;28;20047;-33
2024/01/12 04:46:28;;;;;;;17.00;10.23;;;1.60;99.90;;;;;;5123736;28;20035;-35
2024/01/12 04:48:53;;;;;;;16.05;8.70;;;1.60;99.90;;;;;;5129515;28;20046;-33
2024/01/12 04:51:19;;;;;;;16.02;9.90;;;1.60;99.90;;;;;;5105690;28;20110;-33
2024/01/12 04:53:45;;;;;;;16.33;8.70;;;1.60;99.90;;;;;;5136005;27;20031;-34
2024/01/12 04:56:10;;;;;;;16.15;9.60;;;1.60;99.90;;;;;;5085913;27;20501;-33
2024/01/12 04:58:38;;;;;;;21.60;9.25;;;1.60;99.90;;;;;;5132072;27;20050;-33
2024/01/12 05:01:04;;;;;;;22.95;10.63;;;1.50;99.90;;;;;;5130150;27;20043;-33
2024/01/12 05:03:30;;;;;;;15.32;8.90;;;1.40;99.90;;;;;;5126844;27;20038;-35
2024/01/12 05:05:55;;;;;;;20.63;9.32;;;1.50;99.90;;;;;;5133755;27;20393;-34
2024/01/12 05:08:21;;;;;;;19.73;9.95;;;1.40;99.90;;;;;;5123901;27;20039;-33
2024/01/12 05:10:47;;;;;;;16.83;8.88;;;1.40;99.90;;;;;;5131033;27;20039;-32
2024/01/12 05:13:12;;;;;;;21.20;9.57;;;1.40;99.90;;;;;;5128269;27;20046;-33
2024/01/12 05:15:38;;;;;;;15.15;8.85;;;1.40;99.90;;;;;;5123519;27;20401;-33
2024/01/12 05:18:04;;;;;;;17.88;9.20;;;1.40;99.90;;;;;;5125736;27;20043;-34
2024/01/12 05:20:30;;;;;;;14.73;8.57;;;1.40;99.90;;;;;;5121974;27;20589;-34
2024/01/12 05:22:55;;;;;;;16.95;9.35;;;1.40;99.90;;;;;;5126364;27;20122;-33
2024/01/12 05:25:21;;;;;;;15.45;8.63;;;1.50;99.90;;;;;;5135873;27;20039;-33
2024/01/12 05:27:47;;;;;;;12.93;8.25;;;1.50;99.90;;;;;;5129986;27;20032;-35
2024/01/12 05:30:13;;;;;;;18.15;9.40;;;1.40;99.90;;;;;;5112709;27;20507;-34
2024/01/12 05:32:39;;;;;;;13.18;8.40;;;1.50;99.90;;;;;;5119531;27;20040;-36
2024/01/12 05:35:05;;;;;;;14.93;8.48;;;1.50;99.90;;;;;;5133912;27;20035;-35
2024/01/12 05:37:30;;;;;;;16.65;9.10;;;1.50;99.90;;;;;;5108148;28;20117;-34
2024/01/12 05:39:56;;;;;;;14.63;8.93;;;1.50;99.90;;;;;;5098614;27;20036;-36
2024/01/12 05:42:22;;;;;;;16.90;9.63;;;1.50;99.90;;;;;;5127004;27;20031;-35
2024/01/12 05:44:48;;;;;;;15.00;9.20;;;1.50;99.90;;;;;;5128046;27;20085;-35
2024/01/12 05:47:13;;;;;;;15.90;9.20;;;1.50;99.90;;;;;;5119901;27;20037;-35
2024/01/12 05:49:39;;;;;;;12.10;8.88;;;1.50;99.90;;;;;;5124035;27;20036;-34
2024/01/12 05:52:05;;;;;;;19.35;9.10;;;1.50;99.90;;;;;;5134126;27;20118;-34
2024/01/12 05:54:31;;;;;;;16.30;8.90;;;1.50;99.90;;;;;;5123837;27;20043;-35
2024/01/12 05:56:56;;;;;;;19.60;9.18;;;1.50;99.90;;;;;;5128550;27;20035;-36
2024/01/12 05:59:22;;;;;;;14.15;8.43;;;1.60;99.90;;;;;;5125583;27;20118;-35
2024/01/12 06:01:48;;;;;;;18.88;9.20;;;1.60;99.90;;;;;;5115021;27;20048;-34
2024/01/12 06:04:14;;;;;;;18.98;8.70;;;1.60;99.90;;;;;;5108558;27;20042;-36
2024/01/12 06:06:42;;;;;;;18.63;8.70;;;1.60;99.90;;;;;;5125719;27;20380;-34
2024/01/12 06:09:08;;;;;;;17.63;8.98;;;1.60;99.90;;;;;;5122261;27;20031;-34
2024/01/12 06:11:34;;;;;;;13.25;8.18;;;1.60;99.90;;;;;;5124150;27;20042;-34
2024/01/12 06:14:01;;;;;;;20.52;9.43;;;1.70;99.90;;;;;;5114696;27;20438;-34
2024/01/12 06:16:26;;;;;;;18.17;9.35;;;1.70;99.90;;;;;;5130637;27;20039;-36
2024/01/12 06:18:52;;;;;;;14.80;9.02;;;1.70;99.90;;;;;;5125649;27;20062;-36
2024/01/12 06:21:18;;;;;;;15.43;8.15;;;1.70;99.90;;;;;;5121766;27;20035;-36
2024/01/12 06:23:44;;;;;;;17.77;8.75;;;1.70;99.90;;;;;;5117669;27;20038;-35
2024/01/12 06:26:09;;;;;;;15.20;8.02;;;1.70;99.90;;;;;;5133241;27;20038;-34
2024/01/12 06:28:35;;;;;;;14.00;8.25;;;1.70;99.90;;;;;;5127836;27;20050;-34
2024/01/12 06:31:01;;;;;;;14.38;8.57;;;1.70;99.90;;;;;;5121387;27;20055;-34
2024/01/12 06:33:28;;;;;;;14.68;8.35;;;1.70;99.90;;;;;;5126967;27;20035;-35
2024/01/12 06:35:54;;;;;;;19.42;8.90;;;1.70;99.90;;;;;;5133089;27;20071;-35
2024/01/12 06:38:19;;;;;;;15.75;8.70;;;1.70;99.90;;;;;;5128531;27;20071;-34
2024/01/12 06:40:45;;;;;;;16.52;10.18;;;1.70;99.90;;;;;;5124388;27;20039;-34
2024/01/12 06:43:11;;;;;;;17.45;9.13;;;1.70;99.90;;;;;;5125909;27;20043;-36
2024/01/12 06:45:37;;;;;;;14.57;9.27;;;1.70;99.90;;;;;;5123133;27;20117;-35
2024/01/12 06:48:03;;;;;;;17.00;9.25;;;1.70;99.90;;;;;;5129573;27;20046;-36
2024/01/12 06:50:29;;;;;;;17.67;10.18;;;1.70;99.90;;;;;;5120778;27;20359;-36
2024/01/12 06:52:56;;;;;;;13.25;8.55;;;1.60;99.90;;;;;;5083147;27;20035;-35
2024/01/12 06:55:22;;;;;;;19.88;9.85;;;1.70;99.90;;;;;;5122753;27;20062;-35
2024/01/12 06:57:47;;;;;;;16.95;9.68;;;1.70;99.90;;;;;;5107364;27;20519;-34
2024/01/12 07:00:15;;;;;;;15.65;9.38;;;1.70;99.90;;;;;;5106931;27;20035;-36
2024/01/12 07:02:41;;;;;;;13.30;8.38;;;1.60;99.90;;;;;;5117691;27;20072;-34
2024/01/12 07:05:07;;;;;;;15.23;8.55;;;1.60;99.90;;;;;;5121554;27;20078;-34
2024/01/12 07:07:33;;;;;;;16.73;9.00;;;1.60;99.90;;;;;;5106969;27;20447;-33
2024/01/12 07:09:59;;;;;;;15.18;9.52;;;1.60;99.90;;;;;;5131361;27;20062;-37
2024/01/12 07:12:24;;;;;;;16.48;9.38;;;1.60;99.90;;;;;;5121812;27;20023;-35
2024/01/12 07:14:50;;;;;;;15.13;9.23;;;1.70;99.90;;;;;;5125056;27;20035;-34
2024/01/12 07:17:16;;;;;;;17.08;9.30;;;1.70;99.90;;;;;;5102185;28;20073;-34
2024/01/12 07:19:43;;;;;;;20.27;9.60;;;1.60;99.90;;;;;;5119810;27;20091;-35
2024/01/12 07:22:09;;;;;;;22.30;9.27;;;1.70;99.90;;;;;;5128355;27;20541;-35
2024/01/12 07:24:35;;;;;;;15.68;9.50;;;1.70;99.90;;;;;;5119704;27;20119;-35
2024/01/12 07:27:01;;;;;;;20.08;8.77;;;1.70;99.90;;;;;;5125323;27;20449;-34
2024/01/12 07:29:26;;;;;;;17.55;9.65;;;1.70;99.90;;;;;;5108621;27;20043;-36
2024/01/12 07:31:52;;;;;;;15.63;10.05;;;1.70;99.90;;;;;;5120750;27;20523;-35
2024/01/12 07:34:18;;;;;;;18.67;9.07;;;1.70;99.90;;;;;;5125021;27;20116;-34
2024/01/12 07:36:44;;;;;;;15.32;9.65;;;1.70;99.90;;;;;;5132758;27;20046;-36
2024/01/12 07:39:10;;;;;;;20.67;10.38;;;1.70;99.90;;;;;;5105800;27;20035;-35
2024/01/12 07:41:36;;;;;;;21.85;10.35;;;1.70;99.90;;;;;;5126910;27;20115;-36
2024/01/12 07:44:02;;;;;;;19.17;10.13;;;1.70;99.90;;;;;;5125439;27;20397;-35
2024/01/12 07:46:28;;;;;;;21.98;9.40;;;1.70;99.90;;;;;;5123779;27;20031;-35
2024/01/12 07:48:56;;;;;;;17.88;9.95;;;1.70;99.90;;;;;;5113616;27;20081;-34
2024/01/12 07:51:23;;;;;;;19.67;9.70;;;1.70;99.90;;;;;;5124480;27;20513;-36
2024/01/12 07:53:49;;;;;;;24.40;12.05;;;1.80;99.90;;;;;;5132286;27;20035;-36
2024/01/12 07:56:14;;;;;;;53.78;21.55;;;1.80;99.90;;;;;;5126243;27;20027;-36
2024/01/12 07:58:40;;;;;;;34.97;16.30;;;1.80;99.90;;;;;;5122138;27;20057;-34
2024/01/12 08:01:13;;;;;;;38.70;18.13;;;1.80;99.90;;;;;;5128288;27;20134;-35
2024/01/12 08:03:39;;;;;;;48.60;19.35;;;1.80;99.90;;;;;;5125621;27;20039;-34
2024/01/12 08:06:05;;;;;;;68.13;26.52;;;1.80;99.90;;;;;;5130149;27;20037;-35
2024/01/12 08:08:30;;;;;;;119.63;49.13;;;1.80;99.90;;;;;;5113130;27;20032;-36
2024/01/12 08:10:57;;;;;;;44.78;16.45;;;1.80;99.90;;;;;;5131483;27;20046;-34
2024/01/12 08:13:24;;;;;;;45.88;20.20;;;1.90;99.90;;;;;;5117891;27;20040;-36
2024/01/12 08:15:50;;;;;;;41.92;18.02;;;1.90;99.90;;;;;;5127106;27;20034;-35
2024/01/12 08:18:16;;;;;;;17.67;10.57;;;1.90;99.90;;;;;;5125592;27;20047;-35
2024/01/12 08:20:42;;;;;;;47.75;27.40;;;1.90;99.90;;;;;;5127310;27;20038;-36
2024/01/12 08:23:07;;;;;;;35.05;17.35;;;1.90;99.90;;;;;;5126577;27;20039;-36
2024/01/12 08:25:33;;;;;;;30.75;15.75;;;2.00;99.90;;;;;;5129135;27;20108;-34
2024/01/12 08:27:59;;;;;;;25.90;13.05;;;1.90;99.90;;;;;;5129165;27;20053;-34
2024/01/12 08:30:24;;;;;;;47.90;24.30;;;2.00;99.90;;;;;;5108746;27;20048;-34
2024/01/12 08:32:51;;;;;;;20.45;10.93;;;2.00;99.90;;;;;;5087199;28;20040;-34
2024/01/12 08:35:17;;;;;;;22.83;14.23;;;2.00;99.90;;;;;;5088695;28;20118;-35
2024/01/12 08:37:43;;;;;;;23.02;12.10;;;2.00;99.90;;;;;;5078979;28;20090;-36
2024/01/12 08:40:09;;;;;;;22.52;11.95;;;2.00;99.90;;;;;;5079885;28;20487;-36
2024/01/12 08:42:37;;;;;;;19.75;12.13;;;2.00;99.90;;;;;;5072956;28;20387;-36
2024/01/12 08:45:04;;;;;;;25.77;12.93;;;2.00;99.90;;;;;;5081790;28;20039;-35
2024/01/12 08:47:29;;;;;;;19.92;10.90;;;2.10;99.90;;;;;;5078945;28;20036;-34
2024/01/12 08:49:55;;;;;;;26.02;12.70;;;2.10;99.90;;;;;;5083102;28;20378;-35
2024/01/12 08:52:21;;;;;;;33.13;19.77;;;2.10;99.90;;;;;;5083928;28;20040;-35
2024/01/12 08:54:47;;;;;;;25.58;14.50;;;2.10;99.90;;;;;;5080600;28;20029;-35
2024/01/12 08:57:12;;;;;;;28.98;16.00;;;2.10;99.90;;;;;;5075201;28;20036;-35
2024/01/12 08:59:38;;;;;;;22.27;12.45;;;2.10;99.90;;;;;;5081547;28;20491;-34
2024/01/12 09:02:04;;;;;;;28.42;18.88;;;2.10;99.90;;;;;;5075038;28;21765;-35
2024/01/12 09:04:31;;;;;;;25.35;15.82;;;2.10;99.90;;;;;;5081312;28;20044;-36
2024/01/12 09:06:57;;;;;;;25.67;16.33;;;2.20;99.90;;;;;;5077232;28;20487;-38
2024/01/12 09:09:23;;;;;;;23.13;13.77;;;2.20;99.90;;;;;;5080224;28;20063;-37
2024/01/12 09:11:48;;;;;;;26.95;17.02;;;2.20;99.90;;;;;;5086031;28;20067;-34
2024/01/12 09:14:14;;;;;;;21.10;12.48;;;2.20;99.90;;;;;;5085478;28;20511;-34
2024/01/12 09:16:40;;;;;;;24.30;15.45;;;2.20;99.90;;;;;;5076887;28;20029;-35
2024/01/12 09:19:07;;;;;;;24.77;11.43;;;2.20;99.90;;;;;;5082073;28;20500;-36
2024/01/12 09:21:33;;;;;;;19.83;11.48;;;2.30;99.90;;;;;;5077956;28;20048;-35
2024/01/12 09:23:59;;;;;;;18.70;11.40;;;2.30;99.90;;;;;;5083892;28;20487;-36
2024/01/12 09:26:25;;;;;;;21.25;11.20;;;2.30;99.90;;;;;;5084561;28;20105;-35
2024/01/12 09:28:50;;;;;;;18.05;11.07;;;2.30;99.90;;;;;;5083532;28;20039;-35
2024/01/12 09:31:16;;;;;;;21.40;10.32;;;2.30;99.90;;;;;;5086312;28;20403;-34
2024/01/12 09:33:42;;;;;;;20.40;13.75;;;2.30;99.90;;;;;;5082235;28;20090;-34
2024/01/12 09:36:08;;;;;;;24.00;17.05;;;2.40;99.90;;;;;;5088515;28;20040;-35
2024/01/12 09:38:34;;;;;;;19.23;13.13;;;2.40;99.90;;;;;;5086178;28;20433;-34
2024/01/12 09:41:02;;;;;;;21.52;10.68;;;2.40;99.90;;;;;;5076788;28;20037;-36
2024/01/12 09:43:29;;;;;;;16.55;10.15;;;2.50;99.90;;;;;;5077633;28;20072;-36
2024/01/12 09:46:00;;;;;;;18.45;10.07;;;2.50;99.90;;;;;;5082462;28;20093;-38
2024/01/12 09:48:27;;;;;;;20.08;10.93;;;2.50;99.90;;;;;;5082980;28;20036;-35
2024/01/12 09:50:57;;;;;;;17.80;11.63;;;2.60;99.90;;;;;;5087866;28;20046;-34
2024/01/12 09:53:23;;;;;;;17.17;10.15;;;2.60;99.90;;;;;;5082578;28;20036;-34
2024/01/12 09:55:49;;;;;;;15.63;11.02;;;2.60;99.90;;;;;;5090666;28;20074;-35
2024/01/12 09:58:17;;;;;;;17.38;11.93;;;2.60;99.90;;;;;;5084195;28;20043;-34
2024/01/12 10:00:45;;;;;;;18.88;11.07;;;2.70;99.90;;;;;;5090498;28;20040;-36
2024/01/12 10:03:11;;;;;;;21.50;10.45;;;2.70;99.90;;;;;;5085416;28;20411;-34
2024/01/12 10:05:37;;;;;;;22.27;10.80;;;2.70;99.90;;;;;;5090228;28;20101;-36
2024/01/12 10:08:07;;;;;;;18.30;10.00;;;2.80;99.90;;;;;;5076811;28;20044;-35
2024/01/12 10:10:33;;;;;;;19.55;10.25;;;2.80;99.90;;;;;;5089970;28;20043;-34
2024/01/12 10:13:01;;;;;;;20.15;11.43;;;2.80;99.90;;;;;;5087567;28;20036;-36
2024/01/12 10:15:29;;;;;;;17.35;10.88;;;2.90;99.90;;;;;;5086492;28;20092;-34
2024/01/12 10:17:55;;;;;;;17.90;11.07;;;2.90;99.90;;;;;;5087016;28;20096;-36
2024/01/12 10:20:22;;;;;;;19.30;9.35;;;2.90;99.90;;;;;;5079241;28;20039;-35
2024/01/12 10:22:57;;;;;;;22.70;10.73;;;3.00;99.90;;;;;;5084884;28;20036;-37
2024/01/12 10:25:23;;;;;;;20.38;10.27;;;3.00;99.90;;;;;;5093866;28;20040;-36
2024/01/12 10:27:59;;;;;;;19.00;10.27;;;3.00;99.90;;;;;;5088995;28;20036;-35
2024/01/12 10:30:26;;;;;;;17.88;8.75;;;3.10;99.90;;;;;;5078322;28;20123;-35
2024/01/12 10:32:53;;;;;;;16.08;8.20;;;3.10;99.90;;;;;;5080084;28;20532;-35
2024/01/12 10:35:20;;;;;;;14.02;9.15;;;3.10;99.90;;;;;;5083184;28;20111;-35
2024/01/12 10:37:47;;;;;;;17.20;9.57;;;3.10;99.90;;;;;;5085799;28;20442;-35
2024/01/12 10:40:16;;;;;;;15.13;8.02;;;3.20;99.90;;;;;;5076786;28;20058;-33
2024/01/12 10:42:46;;;;;;;16.98;9.85;;;3.20;99.90;;;;;;5081634;28;20043;-35
2024/01/12 10:45:13;;;;;;;22.02;9.23;;;3.20;99.90;;;;;;5077141;28;20482;-36
2024/01/12 10:47:45;;;;;;;19.05;8.93;;;3.40;99.90;;;;;;5085938;28;20076;-35
2024/01/12 10:50:15;;;;;;;15.73;8.40;;;3.40;99.90;;;;;;5071553;28;20054;-36
2024/01/12 10:52:59;;;;;;;19.48;6.95;;;3.50;99.90;;;;;;5076338;28;20048;-35
2024/01/12 10:55:34;;;;;;;15.67;7.90;;;3.50;99.90;;;;;;5079036;28;20118;-39
2024/01/12 10:58:04;;;;;;;15.23;7.45;;;3.60;99.90;;;;;;5075269;28;20290;-37
2024/01/12 11:00:33;;;;;;;13.00;7.35;;;3.60;99.90;;;;;;5091145;28;20384;-37
2024/01/12 11:03:02;;;;;;;17.23;6.38;;;3.70;99.90;;;;;;5081564;28;20123;-35
2024/01/12 11:05:29;;;;;;;15.50;6.40;;;3.70;99.90;;;;;;5077986;28;20035;-36
2024/01/12 11:07:58;;;;;;;14.63;6.43;;;3.80;99.90;;;;;;5080590;28;20406;-35
2024/01/12 11:10:28;;;;;;;15.80;6.60;;;3.80;99.90;;;;;;5071436;28;20455;-35
2024/01/12 11:12:55;;;;;;;16.65;6.30;;;3.80;99.90;;;;;;5080605;28;20041;-35
2024/01/12 11:15:22;;;;;;;11.55;5.65;;;3.90;99.90;;;;;;5078938;28;20044;-34
2024/01/12 11:17:48;;;;;;;12.77;6.03;;;3.90;99.90;;;;;;5084572;28;20029;-35
2024/01/12 11:20:20;;;;;;;13.80;5.90;;;4.00;99.90;;;;;;5073253;28;20480;-35
2024/01/12 11:22:49;;;;;;;15.15;5.75;;;4.00;99.90;;;;;;5065738;28;20036;-36
2024/01/12 11:25:18;;;;;;;13.23;5.85;;;4.10;99.90;;;;;;5079576;28;20028;-36
2024/01/12 11:27:48;;;;;;;13.45;4.95;;;4.20;99.90;;;;;;5087852;28;20032;-35
2024/01/12 11:30:20;;;;;;;15.45;5.25;;;4.20;99.90;;;;;;5080457;28;20464;-35
2024/01/12 11:32:46;;;;;;;15.68;5.10;;;4.30;99.90;;;;;;5083579;28;20069;-36
2024/01/12 11:35:19;;;;;;;12.05;4.70;;;4.40;99.90;;;;;;5091345;28;20079;-36
2024/01/12 11:37:58;;;;;;;41.78;12.35;;;4.50;99.90;;;;;;5081447;28;20506;-34
2024/01/12 11:40:24;;;;;;;200.40;22.13;;;4.50;99.90;;;;;;5085296;28;20111;-38
2024/01/12 11:42:52;;;;;;;18.23;6.45;;;4.50;99.90;;;;;;5079517;28;20028;-38
2024/01/12 11:45:18;;;;;;;10.57;3.75;;;4.50;99.90;;;;;;5069963;28;20064;-36
2024/01/12 11:47:44;;;;;;;107.97;20.75;;;4.50;99.90;;;;;;5082708;28;20047;-37
2024/01/12 11:50:12;;;;;;;20.65;6.57;;;4.50;99.90;;;;;;5081565;28;20032;-35
2024/01/12 11:52:38;;;;;;;18.92;4.80;;;4.50;99.90;;;;;;5087647;28;20032;-37
2024/01/12 11:55:09;;;;;;;16.70;4.00;;;4.60;99.90;;;;;;5081609;28;20040;-35
2024/01/12 11:57:36;;;;;;;16.80;4.80;;;4.60;99.90;;;;;;5084798;28;20124;-34
2024/01/12 12:00:06;;;;;;;15.68;4.60;;;4.70;99.90;;;;;;5086511;28;20177;-37
2024/01/12 12:02:35;;;;;;;16.55;4.38;;;4.80;99.90;;;;;;5081871;28;20040;-34
2024/01/12 12:05:07;;;;;;;13.55;3.80;;;4.80;99.90;;;;;;5079634;28;20036;-35
2024/01/12 12:07:36;;;;;;;16.30;4.05;;;4.80;99.90;;;;;;5075648;28;20042;-35
2024/01/12 12:10:02;;;;;;;14.35;3.90;;;4.80;99.90;;;;;;5083628;28;20032;-35
2024/01/12 12:12:28;;;;;;;15.63;4.22;;;4.80;99.90;;;;;;5077824;28;20036;-36
2024/01/12 12:15:06;;;;;;;19.67;4.63;;;4.90;99.90;;;;;;5081439;28;20085;-40
2024/01/12 12:17:34;;;;;;;10.30;4.07;;;4.90;99.90;;;;;;5084711;28;20492;-36
2024/01/12 12:20:00;;;;;;;16.10;4.03;;;5.00;99.90;;;;;;5076445;28;20040;-37
2024/01/12 12:22:26;;;;;;;11.90;3.53;;;5.00;99.90;;;;;;5082116;28;20101;-37
2024/01/12 12:24:52;;;;;;;15.15;4.00;;;5.00;99.90;;;;;;5088734;28;20937;-36
2024/01/12 12:27:19;;;;;;;15.38;4.75;;;5.00;99.90;;;;;;5065563;28;20098;-35
2024/01/12 12:29:45;;;;;;;15.63;4.10;;;5.00;99.90;;;;;;5073900;28;20040;-35
2024/01/12 12:32:14;;;;;;;15.48;3.72;;;5.00;99.90;;;;;;5082544;28;20043;-35
2024/01/12 12:34:41;;;;;;;12.05;3.63;;;5.00;99.90;;;;;;5088857;28;20115;-36
2024/01/12 12:37:13;;;;;;;14.68;3.75;;;5.10;99.90;;;;;;5080861;28;20504;-36